createdAt,value
2023-03-15T00:01:37.540Z,29.33
2023-03-15T00:04:10.044Z,29.69
2023-03-15T00:06:42.276Z,29.74
2023-03-15T00:09:14.604Z,30.06
2023-03-15T00:11:46.965Z,30.13
2023-03-15T00:14:19.403Z,29.95
2023-03-15T00:16:51.719Z,30.58
2023-03-15T00:19:24.073Z,30.59
2023-03-15T00:21:56.314Z,30.57
2023-03-15T00:24:28.686Z,30.55
2023-03-15T00:27:02.532Z,30.73
2023-03-15T00:29:35.004Z,30.96
2023-03-15T00:32:07.837Z,30.69
2023-03-15T00:34:40.398Z,30.96
2023-03-15T00:37:13.250Z,31.03
2023-03-15T00:39:45.621Z,31.06
2023-03-15T00:42:18.506Z,31.14
2023-03-15T00:44:51.854Z,31.53
2023-03-15T00:47:24.292Z,31.62
2023-03-15T00:49:56.695Z,31.56
2023-03-15T00:52:29.126Z,31.96
2023-03-15T00:55:01.479Z,31.83
2023-03-15T00:57:35.567Z,32.02
2023-03-15T01:00:09.984Z,32.16
2023-03-15T01:02:42.574Z,32.08
2023-03-15T01:05:13.572Z,32.48
2023-03-15T01:07:46.374Z,32.22
2023-03-15T01:10:19.557Z,32.61
2023-03-15T01:12:51.815Z,32.68
2023-03-15T01:15:24.438Z,32.69
2023-03-15T01:17:56.793Z,32.75
2023-03-15T01:20:29.214Z,32.84
2023-03-15T01:23:01.518Z,33.04
2023-03-15T01:25:33.924Z,33.19
2023-03-15T01:28:06.684Z,33.42
2023-03-15T01:30:39.098Z,33.37
2023-03-15T01:33:11.480Z,33.53
2023-03-15T01:35:43.945Z,33.44
2023-03-15T01:38:16.719Z,33.82
2023-03-15T01:40:47.509Z,33.74
2023-03-15T01:43:22.246Z,33.68
2023-03-15T01:46:05.544Z,33.79
2023-03-15T01:48:44.796Z,34.37
2023-03-15T01:51:21.725Z,34.65
2023-03-15T01:53:58.861Z,34.49
2023-03-15T01:56:32.103Z,34.63
2023-03-15T01:59:06.461Z,34.91
2023-03-15T02:01:40.069Z,34.98
2023-03-15T02:04:14.853Z,35.55
2023-03-15T02:06:49.399Z,35.50
2023-03-15T02:09:22.479Z,35.29
2023-03-15T02:11:54.855Z,35.37
2023-03-15T02:14:27.681Z,35.64
2023-03-15T02:16:58.262Z,35.93
2023-03-15T02:19:44.065Z,36.50
2023-03-15T02:22:24.833Z,36.27
2023-03-15T02:25:01.666Z,36.36
2023-03-15T02:27:35.687Z,36.34
2023-03-15T02:30:10.173Z,36.36
2023-03-15T02:32:42.649Z,36.51
2023-03-15T02:35:20.963Z,36.48
2023-03-15T02:37:53.371Z,36.65
2023-03-15T02:40:27.939Z,36.46
2023-03-15T02:43:02.507Z,36.59
2023-03-15T02:45:36.008Z,36.70
2023-03-15T02:48:09.504Z,36.71
2023-03-15T02:50:42.284Z,36.86
2023-03-15T02:53:14.759Z,36.78
2023-03-15T02:55:47.233Z,37.06
2023-03-15T02:58:19.604Z,37.07
2023-03-15T03:00:53.107Z,37.12
2023-03-15T03:03:25.628Z,37.02
2023-03-15T03:05:58.477Z,37.49
2023-03-15T03:08:31.600Z,37.23
2023-03-15T03:11:03.937Z,37.30
2023-03-15T03:13:36.283Z,37.55
2023-03-15T03:16:09.221Z,37.65
2023-03-15T03:18:42.908Z,37.37
2023-03-15T03:21:15.428Z,37.46
2023-03-15T03:23:47.852Z,37.52
2023-03-15T03:26:21.302Z,37.57
2023-03-15T03:28:53.986Z,37.79
2023-03-15T03:31:25.329Z,37.78
2023-03-15T03:33:58.636Z,37.63
2023-03-15T03:36:31.474Z,37.74
2023-03-15T03:39:04.609Z,37.98
2023-03-15T03:41:37.060Z,38.08
2023-03-15T03:44:09.523Z,38.18
2023-03-15T03:46:41.955Z,38.21
2023-03-15T03:49:14.858Z,38.24
2023-03-15T03:51:47.118Z,38.21
2023-03-15T03:54:21.481Z,38.33
2023-03-15T03:56:53.868Z,38.28
2023-03-15T03:59:26.581Z,38.33
2023-03-15T04:01:57.196Z,38.65
2023-03-15T04:04:29.657Z,38.80
2023-03-15T04:07:02.160Z,39.06
2023-03-15T04:09:37.818Z,39.11
2023-03-15T04:12:11.622Z,39.03
2023-03-15T04:14:43.846Z,39.10
2023-03-15T04:17:16.134Z,39.13
2023-03-15T04:19:48.616Z,39.26
2023-03-15T04:22:21.005Z,39.36
2023-03-15T04:24:54.110Z,39.67
2023-03-15T04:27:24.735Z,39.53
2023-03-15T04:29:57.156Z,39.76
2023-03-15T04:32:29.648Z,39.61
2023-03-15T04:35:02.286Z,39.78
2023-03-15T04:37:34.617Z,39.82
2023-03-15T04:40:09.782Z,39.87
2023-03-15T04:42:42.156Z,40.03
2023-03-15T04:45:15.247Z,40.27
2023-03-15T04:47:46.021Z,40.42
2023-03-15T04:50:18.904Z,40.25
2023-03-15T04:52:51.774Z,40.48
2023-03-15T04:55:24.380Z,40.74
2023-03-15T04:57:57.891Z,40.74
2023-03-15T05:00:32.643Z,40.95
2023-03-15T05:03:05.395Z,40.90
2023-03-15T05:05:36.753Z,41.06
2023-03-15T05:08:11.380Z,41.14
2023-03-15T05:10:44.529Z,41.14
2023-03-15T05:13:19.876Z,41.41
2023-03-15T05:15:54.100Z,41.24
2023-03-15T05:18:28.086Z,41.45
2023-03-15T05:21:01.254Z,41.46
2023-03-15T05:27:54.187Z,41.80
2023-03-15T05:30:27.932Z,42.04
2023-03-15T05:33:04.999Z,42.19
2023-03-15T05:35:39.025Z,42.00
2023-03-15T05:38:14.911Z,42.15
2023-03-15T05:40:50.927Z,42.15
2023-03-15T05:43:24.612Z,42.15
2023-03-15T05:45:58.339Z,42.07
2023-03-15T05:48:33.012Z,42.05
2023-03-15T05:51:07.379Z,42.50
2023-03-15T05:53:41.592Z,42.32
2023-03-15T05:56:16.112Z,42.49
2023-03-15T05:58:49.593Z,42.53
2023-03-15T06:07:21.398Z,42.82
2023-03-15T06:10:02.114Z,42.81
2023-03-15T06:12:34.467Z,42.82
2023-03-15T06:15:08.546Z,42.67
2023-03-15T06:17:40.880Z,42.79
2023-03-15T06:20:15.231Z,42.82
2023-03-15T06:22:47.766Z,42.96
2023-03-15T06:25:18.622Z,43.11
2023-03-15T06:27:51.078Z,43.30
2023-03-15T06:30:23.671Z,43.13
2023-03-15T06:32:54.377Z,43.16
2023-03-15T06:35:27.068Z,43.24
2023-03-15T06:37:57.878Z,43.30
2023-03-15T06:40:30.351Z,42.97
2023-03-15T06:43:06.405Z,43.01
2023-03-15T06:45:38.851Z,42.89
2023-03-15T06:48:11.407Z,43.20
2023-03-15T06:50:47.201Z,43.52
2023-03-15T06:53:20.161Z,43.48
2023-03-15T06:55:52.519Z,43.29
2023-03-15T06:58:24.903Z,43.06
2023-03-15T07:00:57.542Z,42.98
2023-03-15T07:03:29.957Z,43.15
2023-03-15T07:06:02.395Z,43.14
2023-03-15T07:08:34.854Z,43.17
2023-03-15T07:11:07.689Z,43.08
2023-03-15T07:13:40.193Z,43.41
2023-03-15T07:16:12.538Z,43.13
2023-03-15T07:18:44.908Z,43.38
2023-03-15T07:21:17.367Z,43.32
2023-03-15T07:23:49.767Z,43.72
2023-03-15T07:26:22.170Z,44.07
2023-03-15T07:28:54.521Z,44.34
2023-03-15T07:31:27.013Z,43.81
2023-03-15T07:33:59.495Z,44.43
2023-03-15T07:36:32.595Z,44.32
2023-03-15T07:39:05.083Z,43.97
2023-03-15T07:41:37.476Z,43.97
2023-03-15T07:44:10.384Z,44.01
2023-03-15T07:46:42.990Z,44.13
2023-03-15T07:49:13.742Z,43.91
2023-03-15T07:51:46.327Z,43.92
2023-03-15T07:54:19.590Z,43.91
2023-03-15T07:56:51.956Z,43.77
2023-03-15T07:59:24.454Z,43.84
2023-03-15T08:01:56.901Z,43.76
2023-03-15T08:04:29.340Z,43.91
2023-03-15T08:07:01.833Z,43.81
2023-03-15T08:09:34.747Z,43.85
2023-03-15T08:12:07.515Z,43.69
2023-03-15T08:14:39.834Z,43.70
2023-03-15T08:17:16.385Z,43.76
2023-03-15T08:19:48.816Z,43.75
2023-03-15T08:22:21.141Z,43.83
2023-03-15T08:24:54.073Z,43.74
2023-03-15T08:27:26.488Z,43.83
2023-03-15T08:35:34.514Z,43.72
2023-03-15T08:38:07.021Z,43.75
2023-03-15T08:40:40.849Z,43.82
2023-03-15T08:43:13.130Z,43.82
2023-03-15T08:46:00.215Z,43.71
2023-03-15T08:48:33.501Z,43.72
2023-03-15T08:51:07.100Z,43.60
2023-03-15T08:53:39.885Z,43.86
2023-03-15T08:56:12.411Z,43.87
2023-03-15T08:58:44.849Z,43.94
2023-03-15T09:01:17.885Z,43.99
2023-03-15T09:03:51.939Z,43.75
2023-03-15T09:06:24.573Z,43.97
2023-03-15T09:08:56.966Z,43.92
2023-03-15T09:11:29.382Z,43.83
2023-03-15T09:14:01.856Z,43.87
2023-03-15T09:16:34.263Z,44.00
2023-03-15T09:19:06.745Z,43.95
2023-03-15T09:21:39.152Z,44.07
2023-03-15T09:24:11.503Z,43.85
2023-03-15T09:26:43.846Z,43.88
2023-03-15T09:29:16.221Z,43.88
2023-03-15T09:31:48.630Z,43.67
2023-03-15T09:34:21.890Z,43.83
2023-03-15T09:36:54.782Z,43.67
2023-03-15T09:39:25.519Z,43.68
2023-03-15T09:41:59.818Z,43.62
2023-03-15T09:44:44.857Z,43.65
2023-03-15T09:47:25.583Z,43.65
2023-03-15T09:50:03.264Z,43.57
2023-03-15T09:52:41.120Z,43.49
2023-03-15T09:55:17.437Z,43.23
2023-03-15T09:57:52.242Z,43.25
2023-03-15T10:00:28.618Z,43.12
2023-03-15T10:03:07.288Z,42.97
2023-03-15T10:05:43.102Z,42.98
2023-03-15T10:08:17.871Z,42.83
2023-03-15T10:10:54.657Z,42.77
2023-03-15T10:13:37.376Z,42.62
2023-03-15T10:16:19.793Z,42.57
2023-03-15T10:19:03.128Z,42.57
2023-03-15T10:21:42.967Z,42.48
2023-03-15T10:24:20.815Z,42.22
2023-03-15T10:26:53.868Z,42.17
2023-03-15T10:29:28.695Z,42.04
2023-03-15T10:32:01.540Z,42.12
2023-03-15T10:34:35.590Z,42.12
2023-03-15T10:37:09.721Z,42.22
2023-03-15T10:39:46.937Z,42.17
2023-03-15T10:42:34.095Z,41.96
2023-03-15T10:45:22.232Z,42.02
2023-03-15T10:48:00.371Z,41.85
2023-03-15T10:50:35.516Z,41.96
2023-03-15T10:53:13.721Z,41.92
2023-03-15T10:55:47.892Z,41.74
2023-03-15T10:58:27.634Z,41.59
2023-03-15T11:01:07.601Z,41.65
2023-03-15T11:03:40.844Z,41.46
2023-03-15T11:09:16.346Z,41.38
2023-03-15T11:12:01.878Z,41.48
2023-03-15T11:14:41.126Z,41.09
2023-03-15T11:17:21.066Z,41.03
2023-03-15T11:19:59.524Z,41.07
2023-03-15T11:22:31.909Z,41.17
2023-03-15T11:25:04.804Z,41.08
2023-03-15T11:27:35.640Z,40.87
2023-03-15T11:30:14.191Z,40.88
2023-03-15T11:32:47.368Z,40.77
2023-03-15T11:38:35.070Z,40.72
2023-03-15T11:41:20.205Z,40.70
2023-03-15T11:44:17.176Z,40.68
2023-03-15T11:47:23.037Z,40.55
2023-03-15T11:53:14.659Z,40.67
2023-03-15T11:59:11.493Z,40.31
2023-03-15T12:01:49.883Z,40.25
2023-03-15T12:04:45.724Z,40.01
2023-03-15T12:07:40.375Z,40.01
2023-03-15T12:10:34.363Z,39.83
2023-03-15T12:13:21.422Z,39.75
2023-03-15T12:15:54.328Z,39.75
2023-03-15T12:18:32.710Z,39.65
2023-03-15T12:21:24.959Z,39.82
2023-03-15T12:24:04.054Z,39.74
2023-03-15T12:26:44.943Z,39.64
2023-03-15T12:29:24.605Z,39.66
2023-03-15T12:32:00.983Z,39.66
2023-03-15T12:34:39.394Z,39.65
2023-03-15T12:37:17.098Z,39.52
2023-03-15T12:39:51.970Z,39.50
2023-03-15T12:43:10.752Z,39.44
2023-03-15T12:45:48.024Z,39.40
2023-03-15T12:48:28.334Z,39.36
2023-03-15T12:51:16.564Z,39.23
2023-03-15T12:53:56.101Z,39.07
2023-03-15T12:56:37.790Z,38.87
2023-03-15T12:59:32.163Z,38.91
2023-03-15T13:02:11.989Z,38.82
2023-03-15T13:04:44.478Z,38.79
2023-03-15T13:07:27.482Z,38.76
2023-03-15T13:10:16.995Z,38.60
2023-03-15T13:12:54.127Z,38.44
2023-03-15T13:15:29.970Z,38.44
2023-03-15T13:18:10.731Z,38.39
2023-03-15T13:20:47.051Z,38.29
2023-03-15T13:23:21.824Z,38.23
2023-03-15T13:26:10.207Z,38.10
2023-03-15T13:28:47.563Z,37.89
2023-03-15T13:31:24.456Z,37.76
2023-03-15T13:33:58.564Z,37.79
2023-03-15T13:36:40.218Z,37.81
2023-03-15T13:39:19.841Z,37.46
2023-03-15T13:41:57.763Z,37.30
2023-03-15T13:44:31.086Z,37.33
2023-03-15T13:47:03.755Z,37.31
2023-03-15T13:49:36.728Z,37.17
2023-03-15T13:52:14.828Z,36.98
2023-03-15T13:54:47.376Z,36.65
2023-03-15T13:57:22.153Z,36.58
2023-03-15T13:59:59.648Z,36.48
2023-03-15T14:02:38.665Z,36.36
2023-03-15T14:05:14.456Z,36.13
2023-03-15T14:07:48.622Z,36.17
2023-03-15T14:10:34.726Z,36.17
2023-03-15T14:13:24.728Z,36.09
2023-03-15T14:16:01.685Z,36.00
2023-03-15T14:18:39.188Z,35.91
2023-03-15T14:21:17.154Z,35.82
2023-03-15T14:23:50.624Z,35.76
2023-03-15T14:26:24.996Z,35.70
2023-03-15T14:29:02.323Z,35.68
2023-03-15T14:31:36.347Z,35.49
2023-03-15T14:34:17.736Z,35.47
2023-03-15T14:36:50.105Z,35.50
2023-03-15T14:39:27.969Z,35.43
2023-03-15T14:42:00.491Z,35.59
2023-03-15T14:44:31.072Z,35.45
2023-03-15T14:47:03.496Z,35.54
2023-03-15T14:49:35.885Z,35.55
2023-03-15T14:52:10.344Z,35.44
2023-03-15T14:54:45.975Z,35.47
2023-03-15T14:57:18.364Z,35.43
2023-03-15T14:59:52.865Z,35.39
2023-03-15T15:02:25.251Z,35.23
2023-03-15T15:04:56.383Z,35.30
2023-03-15T15:07:28.717Z,35.22
2023-03-15T15:10:01.131Z,35.10
2023-03-15T15:12:33.405Z,35.06
2023-03-15T15:15:07.073Z,34.96
2023-03-15T15:17:39.331Z,34.83
2023-03-15T15:20:15.768Z,34.79
2023-03-15T15:22:50.928Z,34.60
2023-03-15T15:25:24.653Z,34.66
2023-03-15T15:27:57.133Z,34.33
2023-03-15T15:30:31.412Z,34.24
2023-03-15T15:33:03.803Z,34.24
2023-03-15T15:35:36.301Z,34.19
2023-03-15T15:38:09.453Z,34.21
2023-03-15T15:40:42.156Z,34.15
2023-03-15T15:43:15.049Z,34.06
2023-03-15T15:45:47.550Z,33.96
2023-03-15T15:48:18.246Z,33.92
2023-03-15T15:50:51.291Z,33.84
2023-03-15T15:53:23.612Z,33.81
2023-03-15T15:55:57.848Z,33.76
2023-03-15T15:58:30.430Z,33.76
2023-03-15T16:01:01.160Z,33.62
2023-03-15T16:03:34.032Z,33.57
2023-03-15T16:06:06.970Z,33.51
2023-03-15T16:08:41.808Z,33.55
2023-03-15T16:11:16.569Z,33.61
2023-03-15T16:13:51.038Z,33.48
2023-03-15T16:16:23.753Z,33.48
2023-03-15T16:18:56.264Z,33.48
2023-03-15T16:21:33.912Z,33.52
2023-03-15T16:24:09.040Z,33.58
2023-03-15T16:26:42.129Z,33.65
2023-03-15T16:29:19.452Z,33.78
2023-03-15T16:32:16.397Z,33.86
2023-03-15T16:34:52.423Z,33.97
2023-03-15T16:37:27.652Z,33.92
2023-03-15T16:40:18.634Z,34.08
2023-03-15T16:42:51.589Z,34.14
2023-03-15T16:45:24.568Z,34.26
2023-03-15T16:47:57.054Z,34.25
2023-03-15T16:50:28.523Z,34.33
2023-03-15T16:53:02.730Z,34.42
2023-03-15T16:55:38.270Z,34.46
2023-03-15T16:58:19.011Z,34.54
2023-03-15T17:00:51.536Z,34.58
2023-03-15T17:03:22.557Z,34.70
2023-03-15T17:05:55.835Z,34.72
2023-03-15T17:08:29.753Z,34.88
2023-03-15T17:11:02.614Z,34.83
2023-03-15T17:13:40.592Z,35.14
2023-03-15T17:16:18.313Z,35.08
2023-03-15T17:18:54.906Z,35.19
2023-03-15T17:25:01.813Z,35.39
2023-03-15T17:27:33.629Z,35.39
2023-03-15T17:30:09.040Z,35.58
2023-03-15T17:32:42.011Z,35.58
2023-03-15T17:35:15.379Z,35.63
2023-03-15T17:37:48.317Z,35.77
2023-03-15T17:40:26.576Z,35.82
2023-03-15T17:43:01.075Z,35.87
2023-03-15T17:45:35.198Z,36.00
2023-03-15T17:48:08.267Z,36.05
2023-03-15T17:50:41.608Z,36.17
2023-03-15T17:53:18.867Z,36.20
2023-03-15T17:55:53.811Z,36.26
2023-03-15T17:58:28.993Z,36.37
2023-03-15T18:01:02.075Z,36.46
2023-03-15T18:03:35.248Z,36.53
2023-03-15T18:06:09.671Z,36.69
2023-03-15T18:08:42.915Z,36.71
2023-03-15T18:11:23.390Z,36.82
2023-03-15T18:13:56.649Z,36.95
2023-03-15T18:16:30.148Z,37.10
2023-03-15T18:19:02.822Z,37.19
2023-03-15T18:21:36.552Z,37.33
2023-03-15T18:24:12.654Z,37.49
2023-03-15T18:26:55.368Z,37.71
2023-03-15T18:29:27.986Z,37.80
2023-03-15T18:32:04.140Z,38.01
2023-03-15T18:34:40.324Z,38.06
2023-03-15T18:37:12.936Z,37.98
2023-03-15T18:39:45.432Z,38.27
2023-03-15T18:42:16.158Z,38.38
2023-03-15T18:44:48.545Z,38.45
2023-03-15T18:47:21.028Z,38.48
2023-03-15T18:49:55.486Z,38.71
2023-03-15T18:52:34.052Z,38.91
2023-03-15T19:01:17.045Z,39.55
2023-03-15T19:03:50.018Z,39.56
2023-03-15T19:06:23.123Z,39.53
2023-03-15T19:08:55.746Z,39.57
2023-03-15T19:11:31.790Z,39.87
2023-03-15T19:14:04.112Z,39.95
2023-03-15T19:16:35.118Z,40.27
2023-03-15T19:19:08.002Z,40.37
2023-03-15T19:21:42.501Z,40.27
2023-03-15T19:24:14.877Z,40.65
2023-03-15T19:26:47.114Z,40.54
2023-03-15T19:29:22.456Z,40.72
2023-03-15T19:31:55.420Z,40.63
2023-03-15T19:34:28.376Z,40.92
2023-03-15T19:37:01.818Z,41.13
2023-03-15T19:39:34.383Z,41.63
2023-03-15T19:42:06.945Z,41.39
2023-03-15T19:44:39.878Z,41.42
2023-03-15T19:47:12.839Z,41.44
2023-03-15T19:49:46.096Z,41.70
2023-03-15T19:52:18.553Z,41.87
2023-03-15T19:54:51.957Z,41.85
2023-03-15T19:57:24.960Z,42.44
2023-03-15T19:59:57.502Z,42.34
2023-03-15T20:02:33.062Z,42.52
2023-03-15T20:05:06.583Z,42.40
2023-03-15T20:07:41.060Z,42.91
2023-03-15T20:10:19.156Z,42.91
2023-03-15T20:12:52.645Z,42.82
2023-03-15T20:15:29.316Z,43.01
2023-03-15T20:18:02.612Z,43.25
2023-03-15T20:20:35.176Z,43.26
2023-03-15T20:23:06.488Z,43.56
2023-03-15T20:25:39.353Z,43.66
2023-03-15T20:28:27.916Z,43.73
2023-03-15T20:31:03.100Z,44.28
2023-03-15T20:33:38.383Z,44.19
2023-03-15T20:36:13.075Z,44.29
2023-03-15T20:38:46.768Z,44.37
2023-03-15T20:41:19.755Z,44.59
2023-03-15T20:43:54.185Z,44.95
2023-03-15T20:46:26.820Z,44.87
2023-03-15T20:48:59.962Z,45.26
2023-03-15T20:51:32.539Z,45.44
2023-03-15T20:54:05.814Z,45.54
2023-03-15T20:56:38.436Z,45.88
2023-03-15T20:59:09.306Z,45.83
2023-03-15T21:01:52.285Z,46.17
2023-03-15T21:04:45.598Z,46.76
2023-03-15T21:07:20.054Z,46.13
2023-03-15T21:09:53.368Z,46.26
2023-03-15T21:12:25.841Z,46.80
2023-03-15T21:14:58.343Z,46.69
2023-03-15T21:17:29.144Z,46.99
2023-03-15T21:20:01.666Z,47.25
2023-03-15T21:22:32.505Z,47.27
2023-03-15T21:25:05.802Z,47.63
2023-03-15T21:27:38.292Z,47.89
2023-03-15T21:30:14.691Z,47.75
2023-03-15T21:33:01.568Z,47.66
2023-03-15T21:38:36.790Z,47.97
2023-03-15T21:44:57.511Z,48.47
2023-03-15T22:19:05.116Z,49.21
2023-03-15T22:35:45.822Z,50.02
2023-03-15T22:38:15.181Z,50.35
2023-03-15T22:41:04.450Z,50.34
2023-03-15T22:43:33.659Z,50.83
2023-03-15T22:55:09.916Z,50.95
2023-03-15T22:57:39.055Z,51.32
2023-03-15T23:00:14.217Z,51.27
2023-03-15T23:02:43.608Z,51.44
2023-03-15T23:05:13.633Z,51.78
2023-03-15T23:10:44.845Z,51.77
2023-03-15T23:13:15.020Z,51.78
2023-03-15T23:15:50.824Z,51.85
2023-03-15T23:18:21.582Z,51.92
2023-03-15T23:20:50.688Z,51.75
2023-03-15T23:23:37.224Z,51.85
2023-03-15T23:29:10.116Z,52.32
2023-03-15T23:31:39.996Z,52.23
2023-03-15T23:34:09.431Z,52.61
2023-03-15T23:36:38.668Z,52.34
2023-03-15T23:39:22.564Z,52.74
2023-03-15T23:47:47.802Z,52.77
2023-03-15T23:50:18.180Z,52.62
2023-03-15T23:53:02.489Z,52.86
2023-03-15T23:55:32.780Z,52.89
